createdAt,value
2023-05-05T00:00:59.348Z,2.00
2023-05-05T00:03:46.852Z,1.63
2023-05-05T00:06:33.912Z,1.80
2023-05-05T00:09:22.785Z,2.63
2023-05-05T00:12:09.850Z,2.50
2023-05-05T00:14:57.133Z,2.07
2023-05-05T00:17:44.213Z,2.63
2023-05-05T00:20:31.664Z,2.20
2023-05-05T00:23:19.420Z,2.20
2023-05-05T00:26:06.610Z,3.50
2023-05-05T00:28:53.676Z,2.40
2023-05-05T00:31:41.043Z,2.17
2023-05-05T00:34:28.093Z,2.23
2023-05-05T00:37:15.133Z,2.47
2023-05-05T00:40:02.175Z,2.27
2023-05-05T00:42:52.355Z,2.40
2023-05-05T00:45:42.858Z,2.70
2023-05-05T00:48:30.711Z,3.00
2023-05-05T00:51:19.954Z,2.97
2023-05-05T00:54:07.380Z,2.40
2023-05-05T00:56:54.559Z,2.17
2023-05-05T00:59:43.101Z,2.33
2023-05-05T01:02:31.295Z,2.20
2023-05-05T01:05:19.925Z,3.97
2023-05-05T01:08:27.373Z,2.60
2023-05-05T01:11:31.010Z,2.50
2023-05-05T01:14:26.398Z,1.93
2023-05-05T01:17:19.487Z,2.50
2023-05-05T01:20:17.957Z,2.67
2023-05-05T01:23:07.358Z,4.37
2023-05-05T01:26:10.789Z,3.37
2023-05-05T01:29:20.165Z,3.43
2023-05-05T01:32:13.053Z,4.13
2023-05-05T01:35:25.987Z,2.90
2023-05-05T01:38:24.977Z,2.53
2023-05-05T01:41:18.544Z,2.50
2023-05-05T01:44:08.021Z,4.07
2023-05-05T01:46:55.889Z,2.60
2023-05-05T01:49:47.804Z,3.07
2023-05-05T01:52:37.514Z,2.33
2023-05-05T01:55:27.824Z,2.30
2023-05-05T01:58:16.855Z,2.83
2023-05-05T02:01:04.787Z,2.70
2023-05-05T02:03:56.950Z,2.87
2023-05-05T02:06:47.561Z,2.27
2023-05-05T02:09:36.247Z,2.30
2023-05-05T02:12:23.928Z,2.90
2023-05-05T02:15:14.138Z,2.50
2023-05-05T02:18:05.415Z,2.80
2023-05-05T02:20:53.202Z,2.70
2023-05-05T02:23:40.524Z,2.17
2023-05-05T02:26:30.636Z,2.73
2023-05-05T02:29:22.421Z,2.20
2023-05-05T02:32:14.725Z,2.87
2023-05-05T02:35:10.885Z,2.63
2023-05-05T02:38:05.459Z,2.80
2023-05-05T02:40:59.164Z,2.60
2023-05-05T02:43:49.401Z,2.83
2023-05-05T02:46:38.820Z,2.93
2023-05-05T02:49:25.982Z,2.40
2023-05-05T02:52:17.993Z,2.67
2023-05-05T02:55:06.476Z,2.73
2023-05-05T02:58:06.602Z,2.87
2023-05-05T03:01:23.454Z,4.50
2023-05-05T03:04:16.028Z,3.30
2023-05-05T03:07:19.070Z,2.83
2023-05-05T03:10:12.043Z,2.50
2023-05-05T03:13:06.956Z,2.70
2023-05-05T03:16:06.810Z,2.30
2023-05-05T03:18:58.643Z,2.83
2023-05-05T03:21:46.341Z,2.60
2023-05-05T03:24:33.547Z,2.67
2023-05-05T03:27:25.191Z,2.23
2023-05-05T03:30:12.571Z,3.77
2023-05-05T03:33:07.447Z,2.43
2023-05-05T03:35:55.979Z,2.53
2023-05-05T03:38:43.110Z,2.50
2023-05-05T03:41:30.352Z,2.83
2023-05-05T03:44:17.519Z,2.40
2023-05-05T03:47:04.649Z,2.33
2023-05-05T03:49:54.537Z,3.20
2023-05-05T03:52:41.578Z,2.70
2023-05-05T03:55:28.666Z,2.40
2023-05-05T03:58:16.434Z,2.50
2023-05-05T04:01:03.881Z,2.60
2023-05-05T04:03:51.175Z,3.10
2023-05-05T04:06:38.375Z,3.00
2023-05-05T04:09:25.709Z,2.90
2023-05-05T04:12:13.288Z,5.60
2023-05-05T04:15:00.719Z,2.70
2023-05-05T04:17:47.834Z,3.53
2023-05-05T04:20:35.967Z,3.47
2023-05-05T04:23:23.122Z,2.83
2023-05-05T04:26:11.402Z,3.93
2023-05-05T04:28:58.471Z,2.10
2023-05-05T04:31:46.026Z,2.67
2023-05-05T04:34:33.284Z,3.67
2023-05-05T04:37:20.797Z,3.90
2023-05-05T04:40:09.236Z,3.40
2023-05-05T04:42:57.423Z,2.90
2023-05-05T04:45:54.497Z,4.37
2023-05-05T04:48:43.573Z,4.17
2023-05-05T04:51:32.127Z,4.97
2023-05-05T04:54:19.387Z,4.10
2023-05-05T04:57:07.268Z,3.67
2023-05-05T04:59:54.297Z,3.70
2023-05-05T05:02:41.572Z,4.07
2023-05-05T05:05:29.439Z,3.57
2023-05-05T05:08:17.811Z,3.20
2023-05-05T05:11:04.904Z,3.57
2023-05-05T05:13:53.027Z,3.27
2023-05-05T05:16:40.057Z,4.60
2023-05-05T05:19:27.169Z,3.67
2023-05-05T05:22:14.291Z,3.57
2023-05-05T05:25:03.755Z,5.00
2023-05-05T05:28:05.774Z,3.93
2023-05-05T05:30:58.075Z,3.90
2023-05-05T05:33:45.455Z,5.03
2023-05-05T05:36:34.293Z,3.83
2023-05-05T05:39:21.871Z,5.13
2023-05-05T05:42:08.899Z,4.00
2023-05-05T05:44:58.426Z,4.17
2023-05-05T05:47:45.794Z,5.23
2023-05-05T05:50:33.202Z,4.27
2023-05-05T05:53:20.225Z,4.70
2023-05-05T05:56:07.568Z,4.43
2023-05-05T05:58:54.590Z,4.93
2023-05-05T06:01:42.962Z,5.17
2023-05-05T06:04:31.533Z,4.40
2023-05-05T06:07:18.818Z,5.60
2023-05-05T06:10:22.699Z,5.30
2023-05-05T06:13:15.743Z,5.77
2023-05-05T06:16:06.460Z,5.37
2023-05-05T06:18:53.592Z,7.50
2023-05-05T06:21:40.860Z,5.73
2023-05-05T06:24:27.873Z,6.67
2023-05-05T06:27:16.109Z,4.77
2023-05-05T06:30:03.303Z,5.83
2023-05-05T06:32:50.370Z,5.43
2023-05-05T06:35:37.374Z,6.80
2023-05-05T06:38:24.352Z,5.13
2023-05-05T06:41:11.492Z,4.93
2023-05-05T06:43:58.478Z,5.67
2023-05-05T06:46:45.719Z,5.03
2023-05-05T06:49:32.771Z,5.43
2023-05-05T06:52:19.780Z,5.50
2023-05-05T06:55:07.274Z,5.60
2023-05-05T06:57:54.313Z,5.33
2023-05-05T07:00:42.149Z,5.07
2023-05-05T07:03:29.331Z,6.00
2023-05-05T07:06:16.313Z,4.80
2023-05-05T07:09:04.339Z,5.57
2023-05-05T07:11:51.334Z,5.23
2023-05-05T07:14:38.450Z,5.00
2023-05-05T07:17:25.460Z,5.20
2023-05-05T07:20:12.831Z,4.90
2023-05-05T07:22:59.866Z,5.50
2023-05-05T07:25:46.870Z,4.90
2023-05-05T07:28:35.085Z,5.70
2023-05-05T07:31:22.184Z,4.93
2023-05-05T07:34:09.187Z,5.30
2023-05-05T07:36:56.416Z,5.37
2023-05-05T07:39:43.414Z,5.10
2023-05-05T07:42:30.458Z,5.97
2023-05-05T07:45:17.600Z,6.07
2023-05-05T07:48:04.629Z,5.57
2023-05-05T07:50:52.533Z,5.73
2023-05-05T07:53:41.280Z,5.50
2023-05-05T07:56:28.346Z,4.97
2023-05-05T07:59:15.456Z,6.30
2023-05-05T08:02:02.433Z,5.57
2023-05-05T08:04:49.648Z,5.40
2023-05-05T08:07:40.938Z,5.87
2023-05-05T08:10:28.149Z,5.40
2023-05-05T08:13:15.219Z,5.43
2023-05-05T08:16:02.355Z,6.30
2023-05-05T08:18:49.404Z,5.87
2023-05-05T08:21:36.514Z,5.53
2023-05-05T08:24:23.567Z,5.87
2023-05-05T08:27:10.626Z,5.50
2023-05-05T08:29:58.270Z,5.70
2023-05-05T08:32:45.327Z,5.93
2023-05-05T08:35:32.306Z,5.93
2023-05-05T08:38:19.305Z,5.60
2023-05-05T08:41:09.764Z,5.30
2023-05-05T08:43:56.845Z,6.70
2023-05-05T08:46:44.284Z,5.67
2023-05-05T08:49:37.215Z,6.27
2023-05-05T08:52:27.966Z,5.90
2023-05-05T08:55:26.956Z,6.57
2023-05-05T08:58:15.403Z,6.13
2023-05-05T09:01:02.926Z,6.20
2023-05-05T09:03:50.237Z,6.00
2023-05-05T09:06:37.927Z,5.90
2023-05-05T09:09:25.332Z,6.43
2023-05-05T09:12:12.331Z,6.40
2023-05-05T09:15:03.471Z,6.43
2023-05-05T09:17:50.699Z,5.57
2023-05-05T09:20:39.953Z,6.07
2023-05-05T09:23:26.938Z,6.00
2023-05-05T09:26:14.415Z,7.67
2023-05-05T09:29:02.728Z,6.73
2023-05-05T09:32:08.817Z,5.70
2023-05-05T09:35:01.083Z,6.73
2023-05-05T09:37:48.449Z,6.47
2023-05-05T09:40:48.676Z,7.57
2023-05-05T09:43:51.876Z,6.40
2023-05-05T09:46:51.046Z,6.67
2023-05-05T09:49:38.617Z,7.13
2023-05-05T09:52:25.739Z,6.27
2023-05-05T09:55:18.675Z,6.77
2023-05-05T09:58:23.641Z,6.60
2023-05-05T10:01:23.356Z,6.30
2023-05-05T10:04:24.034Z,6.00
2023-05-05T10:07:23.133Z,5.20
2023-05-05T10:10:12.450Z,6.00
2023-05-05T10:12:59.480Z,6.03
2023-05-05T10:15:49.960Z,5.80
2023-05-05T10:18:40.796Z,6.60
2023-05-05T10:21:33.556Z,5.97
2023-05-05T10:24:25.440Z,6.07
2023-05-05T10:27:17.452Z,6.47
2023-05-05T10:30:06.333Z,6.33
2023-05-05T10:33:30.877Z,6.83
2023-05-05T10:36:20.119Z,7.37
2023-05-05T10:39:09.313Z,7.87
2023-05-05T10:42:01.842Z,8.00
2023-05-05T10:44:49.289Z,7.63
2023-05-05T10:47:38.223Z,8.43
2023-05-05T10:50:41.409Z,8.10
2023-05-05T10:53:32.709Z,8.03
2023-05-05T10:56:26.767Z,7.93
2023-05-05T10:59:38.858Z,8.73
2023-05-05T11:02:30.454Z,8.17
2023-05-05T11:05:18.399Z,8.13
2023-05-05T11:08:25.641Z,9.17
2023-05-05T11:11:12.955Z,9.00
2023-05-05T11:14:21.210Z,8.60
2023-05-05T11:17:47.021Z,8.37
2023-05-05T11:20:40.106Z,8.07
2023-05-05T11:23:28.090Z,7.57
2023-05-05T11:26:16.555Z,6.10
2023-05-05T11:29:04.805Z,7.80
2023-05-05T11:32:11.358Z,7.67
2023-05-05T11:34:58.537Z,7.47
2023-05-05T11:37:45.839Z,7.07
2023-05-05T11:40:36.850Z,6.73
2023-05-05T11:43:23.887Z,6.10
2023-05-05T11:46:15.536Z,5.87
2023-05-05T11:49:02.613Z,5.03
2023-05-05T11:52:00.051Z,3.10
2023-05-05T11:54:48.980Z,3.30
2023-05-05T11:57:36.018Z,3.53
2023-05-05T12:00:32.714Z,2.50
2023-05-05T12:03:19.972Z,2.30
2023-05-05T12:06:08.320Z,2.30
2023-05-05T12:08:55.345Z,2.30
2023-05-05T12:11:52.178Z,2.53
2023-05-05T12:14:50.477Z,2.07
2023-05-05T12:17:42.662Z,1.93
2023-05-05T12:20:32.328Z,2.40
2023-05-05T12:23:20.222Z,2.47
2023-05-05T12:26:08.016Z,2.13
2023-05-05T12:28:56.042Z,2.63
2023-05-05T12:31:43.039Z,2.33
2023-05-05T12:34:31.744Z,2.50
2023-05-05T12:37:21.794Z,2.60
2023-05-05T12:40:58.096Z,2.70
2023-05-05T12:43:45.967Z,2.77
2023-05-05T12:46:45.677Z,2.70
2023-05-05T12:49:44.900Z,2.50
2023-05-05T12:52:43.115Z,2.23
2023-05-05T12:55:37.548Z,2.17
2023-05-05T12:58:25.128Z,2.47
2023-05-05T13:01:12.170Z,2.20
2023-05-05T13:04:06.780Z,2.50
2023-05-05T13:07:14.597Z,3.33
2023-05-05T13:10:10.527Z,3.00
2023-05-05T13:12:58.026Z,2.80
2023-05-05T13:15:45.142Z,2.97
2023-05-05T13:18:32.310Z,2.57
2023-05-05T13:21:19.440Z,2.87
2023-05-05T13:24:22.947Z,2.23
2023-05-05T13:27:12.800Z,2.50
2023-05-05T13:29:59.814Z,2.80
2023-05-05T13:32:46.867Z,2.57
2023-05-05T13:35:33.871Z,2.20
2023-05-05T13:38:20.905Z,2.60
2023-05-05T13:41:07.903Z,2.20
2023-05-05T13:43:54.905Z,2.40
2023-05-05T13:46:42.784Z,2.63
2023-05-05T13:49:29.828Z,2.23
2023-05-05T13:52:16.850Z,1.83
2023-05-05T13:55:04.693Z,2.37
2023-05-05T13:57:51.654Z,2.50
2023-05-05T14:00:38.742Z,4.37
2023-05-05T14:03:25.840Z,2.37
2023-05-05T14:06:12.864Z,3.53
2023-05-05T14:08:59.924Z,3.30
2023-05-05T14:11:46.894Z,3.50
2023-05-05T14:14:34.452Z,4.20
2023-05-05T14:17:21.452Z,3.87
2023-05-05T14:20:08.812Z,5.03
2023-05-05T14:22:56.379Z,4.10
2023-05-05T14:25:43.466Z,3.90
2023-05-05T14:28:30.706Z,3.40
2023-05-05T14:31:17.840Z,4.20
2023-05-05T14:34:07.607Z,5.67
2023-05-05T14:36:54.619Z,4.40
2023-05-05T14:39:41.599Z,4.47
2023-05-05T14:42:28.642Z,3.90
2023-05-05T14:45:15.763Z,4.73
2023-05-05T14:48:02.799Z,5.23
2023-05-05T14:50:49.943Z,4.73
2023-05-05T14:53:37.057Z,3.80
2023-05-05T14:56:26.495Z,3.50
2023-05-05T14:59:13.537Z,3.40
2023-05-05T15:02:00.731Z,3.83
2023-05-05T15:04:49.266Z,3.27
2023-05-05T15:07:36.836Z,3.43
2023-05-05T15:10:23.880Z,3.77
2023-05-05T15:13:10.930Z,3.77
2023-05-05T15:15:58.000Z,3.30
2023-05-05T15:18:45.093Z,3.57
2023-05-05T15:21:32.194Z,3.10
2023-05-05T15:24:20.250Z,2.93
2023-05-05T15:27:07.474Z,3.17
2023-05-05T15:29:55.276Z,2.33
2023-05-05T15:32:42.512Z,3.07
2023-05-05T15:35:29.606Z,2.47
2023-05-05T15:38:16.852Z,3.67
2023-05-05T15:41:06.984Z,2.30
2023-05-05T15:43:53.961Z,2.40
2023-05-05T15:46:41.216Z,2.20
2023-05-05T15:49:28.374Z,2.00
2023-05-05T15:52:15.413Z,2.20
2023-05-05T15:55:02.449Z,2.00
2023-05-05T15:57:49.434Z,2.03
2023-05-05T16:00:36.448Z,1.83
2023-05-05T16:03:23.493Z,2.47
2023-05-05T16:06:13.744Z,2.87
2023-05-05T16:09:00.701Z,2.47
2023-05-05T16:11:47.936Z,2.50
2023-05-05T16:14:34.962Z,2.40
2023-05-05T16:17:22.749Z,2.40
2023-05-05T16:20:10.669Z,2.57
2023-05-05T16:22:58.388Z,2.50
2023-05-05T16:25:45.368Z,2.70
2023-05-05T16:28:34.255Z,2.97
2023-05-05T16:31:21.371Z,2.90
2023-05-05T16:34:08.458Z,2.70
2023-05-05T16:36:56.061Z,2.90
2023-05-05T16:39:43.078Z,2.77
2023-05-05T16:42:30.075Z,3.03
2023-05-05T16:45:17.112Z,2.80
2023-05-05T16:48:06.126Z,2.67
2023-05-05T16:50:56.382Z,2.70
2023-05-05T16:53:43.419Z,2.80
2023-05-05T16:56:30.432Z,3.17
2023-05-05T16:59:19.122Z,2.50
2023-05-05T17:02:06.213Z,2.73
2023-05-05T17:04:53.248Z,3.10
2023-05-05T17:07:40.665Z,2.80
2023-05-05T17:10:27.727Z,2.43
2023-05-05T17:13:15.065Z,2.93
2023-05-05T17:16:02.129Z,2.67
2023-05-05T17:18:49.127Z,3.23
2023-05-05T17:21:36.263Z,2.97
2023-05-05T17:24:24.007Z,3.30
2023-05-05T17:27:11.260Z,3.37
2023-05-05T17:29:58.697Z,3.07
2023-05-05T17:32:46.189Z,3.47
2023-05-05T17:35:33.355Z,3.10
2023-05-05T17:38:20.398Z,3.40
2023-05-05T17:41:07.561Z,2.87
2023-05-05T17:43:54.583Z,2.80
2023-05-05T17:46:41.927Z,3.93
2023-05-05T17:49:28.939Z,3.10
2023-05-05T17:52:15.968Z,3.13
2023-05-05T17:55:02.949Z,3.63
2023-05-05T17:57:50.254Z,3.10
2023-05-05T18:00:37.272Z,3.97
2023-05-05T18:03:24.476Z,3.03
2023-05-05T18:06:11.638Z,3.17
2023-05-05T18:08:58.775Z,3.37
2023-05-05T18:11:45.850Z,3.23
2023-05-05T18:14:32.889Z,3.80
2023-05-05T18:17:19.890Z,3.33
2023-05-05T18:20:07.497Z,2.90
2023-05-05T18:22:54.476Z,3.47
2023-05-05T18:25:41.571Z,3.70
2023-05-05T18:28:28.632Z,3.67
2023-05-05T18:31:15.733Z,3.30
2023-05-05T18:34:02.743Z,3.57
2023-05-05T18:36:51.161Z,3.30
2023-05-05T18:39:38.203Z,3.37
2023-05-05T18:42:25.223Z,3.90
2023-05-05T18:45:12.273Z,3.60
2023-05-05T18:47:59.581Z,3.93
2023-05-05T18:50:47.667Z,3.80
2023-05-05T18:53:35.640Z,4.20
2023-05-05T18:56:22.734Z,3.70
2023-05-05T18:59:09.774Z,4.23
2023-05-05T19:01:56.840Z,4.03
2023-05-05T19:04:44.519Z,3.83
2023-05-05T19:07:35.051Z,4.07
2023-05-05T19:10:22.814Z,4.20
2023-05-05T19:13:10.914Z,3.97
2023-05-05T19:15:58.091Z,3.40
2023-05-05T19:18:45.112Z,3.53
2023-05-05T19:21:32.172Z,4.17
2023-05-05T19:24:19.194Z,3.67
2023-05-05T19:27:08.090Z,4.20
2023-05-05T19:29:55.365Z,5.73
2023-05-05T19:32:42.386Z,4.30
2023-05-05T19:35:30.483Z,4.10
2023-05-05T19:38:17.451Z,3.90
2023-05-05T19:41:04.436Z,3.37
2023-05-05T19:43:51.418Z,4.20
2023-05-05T19:46:38.576Z,4.30
2023-05-05T19:49:25.733Z,5.03
2023-05-05T19:52:12.711Z,6.40
2023-05-05T19:54:59.688Z,7.33
2023-05-05T19:57:46.626Z,6.20
2023-05-05T20:00:33.626Z,4.67
2023-05-05T20:03:21.257Z,4.53
2023-05-05T20:06:08.549Z,3.80
2023-05-05T20:08:55.619Z,3.27
2023-05-05T20:11:42.834Z,3.37
2023-05-05T20:14:29.804Z,3.40
2023-05-05T20:17:20.075Z,3.80
2023-05-05T20:20:07.770Z,4.60
2023-05-05T20:22:54.877Z,4.00
2023-05-05T20:25:41.885Z,4.37
2023-05-05T20:28:31.532Z,3.87
2023-05-05T20:31:18.648Z,4.23
2023-05-05T20:34:06.037Z,3.43
2023-05-05T20:36:54.189Z,3.40
2023-05-05T20:39:42.310Z,4.43
2023-05-05T20:42:29.734Z,4.87
2023-05-05T20:45:16.939Z,3.77
2023-05-05T20:48:05.796Z,4.03
2023-05-05T20:50:52.805Z,4.07
2023-05-05T20:53:40.075Z,4.40
2023-05-05T20:56:27.057Z,3.90
2023-05-05T20:59:14.017Z,4.47
2023-05-05T21:02:01.037Z,4.57
2023-05-05T21:04:48.062Z,4.20
2023-05-05T21:07:35.141Z,3.97
2023-05-05T21:10:22.230Z,4.10
2023-05-05T21:13:09.251Z,4.07
2023-05-05T21:15:56.262Z,4.30
2023-05-05T21:18:46.663Z,5.37
2023-05-05T21:21:33.692Z,5.17
2023-05-05T21:24:20.695Z,4.87
2023-05-05T21:27:07.666Z,4.10
2023-05-05T21:29:54.829Z,3.93
2023-05-05T21:32:42.019Z,4.17
2023-05-05T21:35:29.021Z,4.50
2023-05-05T21:38:16.644Z,6.50
2023-05-05T21:41:03.730Z,7.60
2023-05-05T21:43:50.805Z,4.70
2023-05-05T21:46:37.883Z,4.00
2023-05-05T21:49:24.910Z,3.73
2023-05-05T21:52:11.913Z,3.80
2023-05-05T21:54:58.940Z,3.87
2023-05-05T21:57:45.968Z,4.20
2023-05-05T22:00:33.046Z,3.97
2023-05-05T22:03:20.122Z,4.10
2023-05-05T22:06:07.187Z,3.93
2023-05-05T22:08:54.222Z,4.60
2023-05-05T22:11:41.182Z,4.27
2023-05-05T22:14:28.154Z,5.60
2023-05-05T22:17:15.112Z,4.70
2023-05-05T22:20:02.943Z,4.30
2023-05-05T22:22:49.948Z,4.63
2023-05-05T22:25:36.966Z,4.63
2023-05-05T22:28:23.958Z,4.10
2023-05-05T22:31:11.020Z,4.57
2023-05-05T22:33:57.991Z,4.17
2023-05-05T22:36:45.039Z,4.37
2023-05-05T22:39:33.220Z,4.63
2023-05-05T22:42:20.902Z,4.20
2023-05-05T22:45:08.841Z,4.93
2023-05-05T22:47:56.246Z,4.57
2023-05-05T22:50:43.388Z,5.40
2023-05-05T22:53:30.366Z,5.67
2023-05-05T22:56:17.375Z,6.40
2023-05-05T22:59:05.434Z,6.97
2023-05-05T23:01:52.420Z,7.33
2023-05-05T23:04:39.477Z,6.90
2023-05-05T23:07:26.579Z,6.93
2023-05-05T23:10:13.598Z,6.30
2023-05-05T23:13:00.649Z,5.67
2023-05-05T23:15:47.700Z,5.40
2023-05-05T23:18:36.543Z,5.87
2023-05-05T23:21:23.555Z,5.20
2023-05-05T23:24:10.600Z,4.87
2023-05-05T23:27:03.742Z,4.93
2023-05-05T23:29:50.796Z,4.60
2023-05-05T23:32:37.900Z,5.93
2023-05-05T23:35:25.001Z,4.07
2023-05-05T23:38:12.056Z,3.70
2023-05-05T23:40:59.062Z,4.40
2023-05-05T23:43:46.013Z,3.80
2023-05-05T23:46:33.023Z,4.40
2023-05-05T23:49:20.008Z,3.80
2023-05-05T23:52:07.021Z,3.07
2023-05-05T23:54:54.018Z,3.63
2023-05-05T23:57:40.986Z,3.33
